Time;durP1;ratioP1;P1;durP2;ratioP2;P2;SDS_P1;SDS_P2;PMS_P1;PMS_P2;Temp;Humidity;BMP_temperature;BMP_pressure;BME280_temperature;BME280_humidity;BME280_pressure;Samples;Min_cycle;Max_cycle;Signal;HPM_P1;HPM_P2
2022/09/18 00:00:47;;;;;;;0.00;0.00;;;8.00;99.90;;;;;;5114807;28;20052;-74
2022/09/18 00:03:14;;;;;;;0.00;0.00;;;8.00;99.90;;;;;;5112944;28;20047;-75
2022/09/18 00:05:41;;;;;;;1.55;0.32;;;8.00;99.90;;;;;;5112865;28;20199;-74
2022/09/18 00:08:06;;;;;;;0.00;0.00;;;8.10;99.90;;;;;;5112530;28;20039;-75
2022/09/18 00:10:38;;;;;;;0.00;0.00;;;8.10;99.90;;;;;;5111883;28;20046;-75
2022/09/18 00:13:03;;;;;;;0.13;0.13;;;8.10;99.90;;;;;;5112106;28;20501;-75
2022/09/18 00:15:29;;;;;;;0.00;0.00;;;8.10;99.90;;;;;;5112177;28;20071;-76
2022/09/18 00:17:54;;;;;;;0.00;0.00;;;8.00;99.90;;;;;;5111449;28;20079;-75
2022/09/18 00:20:20;;;;;;;0.43;0.32;;;8.00;99.90;;;;;;5111368;28;21045;-76
2022/09/18 00:22:46;;;;;;;0.00;0.00;;;7.90;99.90;;;;;;5110757;28;20692;-76
2022/09/18 00:25:11;;;;;;;0.00;0.00;;;7.90;99.90;;;;;;5110997;28;20043;-75
2022/09/18 00:27:37;;;;;;;0.10;0.10;;;8.00;99.90;;;;;;5110763;28;20077;-74
2022/09/18 00:30:03;;;;;;;0.00;0.00;;;8.00;99.90;;;;;;5111132;28;20051;-76
2022/09/18 00:32:29;;;;;;;0.38;0.30;;;8.10;99.90;;;;;;5110243;28;20063;-75
2022/09/18 00:34:54;;;;;;;0.00;0.00;;;8.20;99.90;;;;;;5112168;28;20046;-75
2022/09/18 00:37:20;;;;;;;0.00;0.00;;;8.20;99.90;;;;;;5112897;28;20055;-75
2022/09/18 00:39:46;;;;;;;0.00;0.00;;;8.30;99.90;;;;;;5113379;28;20047;-75
2022/09/18 00:42:12;;;;;;;7.88;0.65;;;8.40;99.90;;;;;;5112951;28;20199;-75
2022/09/18 00:44:43;;;;;;;0.05;0.05;;;8.40;99.90;;;;;;5113057;28;20550;-75
2022/09/18 00:47:09;;;;;;;4.18;0.28;;;8.40;99.90;;;;;;5108191;28;20044;-76
2022/09/18 00:49:44;;;;;;;0.00;0.00;;;8.40;99.90;;;;;;5094171;28;20160;-76
2022/09/18 00:52:12;;;;;;;4.25;1.17;;;8.30;99.90;;;;;;5093193;28;20043;-76
2022/09/18 00:54:45;;;;;;;0.00;0.00;;;8.20;99.90;;;;;;5093596;28;20051;-75
2022/09/18 00:57:17;;;;;;;0.00;0.00;;;8.20;99.90;;;;;;5092209;28;20062;-75
2022/09/18 00:59:45;;;;;;;0.00;0.00;;;8.10;99.90;;;;;;5093579;28;20081;-76
2022/09/18 01:02:11;;;;;;;0.00;0.00;;;8.10;99.90;;;;;;5092594;28;20662;-76
2022/09/18 01:04:37;;;;;;;0.00;0.00;;;8.10;99.90;;;;;;5093835;28;20051;-76
2022/09/18 01:07:11;;;;;;;0.00;0.00;;;8.20;99.90;;;;;;5094224;28;20044;-75
2022/09/18 01:10:06;;;;;;;0.08;0.08;;;8.30;99.90;;;;;;5094465;28;20449;-76
2022/09/18 01:13:00;;;;;;;0.00;0.00;;;8.40;99.90;;;;;;5086810;28;20606;-76
2022/09/18 01:15:42;;;;;;;0.00;0.00;;;8.40;99.90;;;;;;5086575;28;20079;-76
2022/09/18 01:18:32;;;;;;;0.57;0.22;;;8.50;99.90;;;;;;5093646;28;20115;-74
2022/09/18 01:21:04;;;;;;;0.13;0.13;;;8.50;99.90;;;;;;5097829;28;20125;-75
2022/09/18 01:24:07;;;;;;;0.00;0.00;;;8.50;99.90;;;;;;5096573;28;20056;-75
2022/09/18 01:26:45;;;;;;;0.00;0.00;;;8.40;99.90;;;;;;5096514;28;20052;-74
2022/09/18 01:29:27;;;;;;;0.13;0.13;;;8.40;99.90;;;;;;5098463;28;20078;-75
2022/09/18 01:32:22;;;;;;;0.00;0.00;;;8.40;99.90;;;;;;5095774;28;20086;-75
2022/09/18 01:34:56;;;;;;;0.20;0.20;;;8.40;99.90;;;;;;5094681;28;20052;-74
2022/09/18 01:37:31;;;;;;;0.00;0.00;;;8.30;99.90;;;;;;5095862;28;20047;-74
2022/09/18 01:40:35;;;;;;;0.85;0.85;;;8.20;99.90;;;;;;5097687;28;20048;-74
2022/09/18 01:43:05;;;;;;;0.00;0.00;;;8.10;99.90;;;;;;5095388;28;20056;-75
2022/09/18 01:45:35;;;;;;;0.17;0.17;;;8.10;99.90;;;;;;5096711;28;20044;-74
2022/09/18 01:48:06;;;;;;;15.20;0.98;;;8.00;99.90;;;;;;5095677;28;20052;-75
2022/09/18 01:50:37;;;;;;;0.00;0.00;;;8.00;99.90;;;;;;5098825;28;20076;-75
2022/09/18 01:53:06;;;;;;;0.35;0.35;;;8.00;99.90;;;;;;5116466;28;20048;-76
2022/09/18 01:55:34;;;;;;;0.00;0.00;;;7.90;99.90;;;;;;5115637;28;20047;-74
2022/09/18 01:58:16;;;;;;;0.00;0.00;;;8.00;99.90;;;;;;5113562;22;20419;-74
2022/09/18 02:00:46;;;;;;;0.00;0.00;;;8.00;99.90;;;;;;5070884;28;20099;-75
2022/09/18 02:03:26;;;;;;;4.93;1.42;;;8.10;99.90;;;;;;5057160;28;20044;-75
2022/09/18 02:05:56;;;;;;;0.28;0.28;;;8.10;99.90;;;;;;5066698;28;20164;-76
2022/09/18 02:08:37;;;;;;;0.00;0.00;;;8.70;99.90;;;;;;5056903;28;20166;-74
2022/09/18 02:11:14;;;;;;;0.05;0.05;;;8.10;99.90;;;;;;5055472;28;20051;-75
2022/09/18 02:13:55;;;;;;;0.00;0.00;;;8.10;99.90;;;;;;5058591;28;20080;-75
2022/09/18 02:16:29;;;;;;;0.00;0.00;;;8.10;99.90;;;;;;5057004;28;20045;-75
2022/09/18 02:18:59;;;;;;;3.78;0.80;;;8.10;99.90;;;;;;5055898;28;20055;-76
2022/09/18 02:21:27;;;;;;;0.00;0.00;;;8.20;99.90;;;;;;5058869;28;20056;-76
2022/09/18 02:24:00;;;;;;;0.10;0.10;;;8.10;99.90;;;;;;5058270;28;20044;-75
2022/09/18 02:26:26;;;;;;;0.00;0.00;;;8.20;99.90;;;;;;5058578;28;20053;-76
2022/09/18 02:28:53;;;;;;;1.23;0.85;;;8.20;99.90;;;;;;5057438;28;20224;-74
2022/09/18 02:31:19;;;;;;;0.00;0.00;;;8.20;99.90;;;;;;5070041;28;20040;-77
2022/09/18 02:33:44;;;;;;;0.00;0.00;;;8.30;99.90;;;;;;5057502;28;20053;-75
2022/09/18 02:36:31;;;;;;;0.00;0.00;;;8.30;99.90;;;;;;5056725;28;20045;-76
2022/09/18 02:39:04;;;;;;;0.00;0.00;;;8.40;99.90;;;;;;5055972;28;20040;-76
2022/09/18 02:41:45;;;;;;;0.00;0.00;;;8.40;99.90;;;;;;5057114;28;20041;-76
2022/09/18 02:44:38;;;;;;;0.00;0.00;;;8.40;99.90;;;;;;5058255;28;20078;-76
2022/09/18 02:47:19;;;;;;;0.00;0.00;;;8.50;99.90;;;;;;5071502;28;20052;-75
2022/09/18 02:50:22;;;;;;;0.10;0.10;;;8.50;99.90;;;;;;5077598;28;20044;-74
2022/09/18 02:52:53;;;;;;;0.57;0.57;;;8.60;99.90;;;;;;5076374;28;20044;-75
2022/09/18 02:55:45;;;;;;;0.00;0.00;;;8.60;99.90;;;;;;5076782;28;20059;-76
2022/09/18 02:58:41;;;;;;;0.00;0.00;;;8.60;99.90;;;;;;5055199;28;20069;-76
2022/09/18 03:01:09;;;;;;;0.00;0.00;;;8.70;99.90;;;;;;5056885;28;20053;-77
2022/09/18 03:03:37;;;;;;;0.00;0.00;;;8.70;99.90;;;;;;5054880;28;20073;-76
2022/09/18 03:06:04;;;;;;;0.73;0.05;;;8.80;99.90;;;;;;5033942;28;20053;-74
2022/09/18 03:08:30;;;;;;;0.10;0.10;;;8.80;99.90;;;;;;5015764;28;20076;-75
2022/09/18 03:10:55;;;;;;;0.05;0.05;;;8.80;99.90;;;;;;5016685;28;20512;-77
2022/09/18 03:13:21;;;;;;;0.00;0.00;;;8.90;99.90;;;;;;5014753;28;20041;-76
2022/09/18 03:15:47;;;;;;;0.00;0.00;;;9.00;99.90;;;;;;5015091;28;20487;-75
2022/09/18 03:18:13;;;;;;;0.00;0.00;;;9.00;99.90;;;;;;5015866;28;20042;-75
2022/09/18 03:20:41;;;;;;;0.20;0.20;;;9.00;99.90;;;;;;5015280;28;20038;-76
2022/09/18 03:23:08;;;;;;;17.30;0.52;;;9.00;99.90;;;;;;5015750;28;20069;-76
2022/09/18 03:25:34;;;;;;;4.60;1.85;;;9.00;99.90;;;;;;5013798;28;20041;-77
2022/09/18 03:28:00;;;;;;;0.00;0.00;;;9.10;99.90;;;;;;5015469;28;20045;-76
2022/09/18 03:30:26;;;;;;;0.00;0.00;;;9.10;99.90;;;;;;5018055;28;20042;-77
2022/09/18 03:32:52;;;;;;;0.00;0.00;;;9.10;99.90;;;;;;5018028;28;20133;-76
2022/09/18 03:35:19;;;;;;;0.55;0.55;;;9.10;99.90;;;;;;5021530;28;20038;-74
2022/09/18 03:37:45;;;;;;;0.00;0.00;;;9.20;99.90;;;;;;5020699;28;20045;-75
2022/09/18 03:40:11;;;;;;;0.00;0.00;;;9.20;99.90;;;;;;5021742;28;20077;-76
2022/09/18 03:42:36;;;;;;;0.00;0.00;;;9.20;99.90;;;;;;5015919;28;20068;-72
2022/09/18 03:45:03;;;;;;;0.35;0.15;;;9.20;99.90;;;;;;5015517;28;20042;-74
2022/09/18 03:47:29;;;;;;;0.20;0.20;;;9.20;99.90;;;;;;5016091;28;20053;-75
2022/09/18 03:49:54;;;;;;;0.65;0.45;;;9.20;99.90;;;;;;5015894;28;20084;-73
2022/09/18 03:52:20;;;;;;;1.65;0.40;;;9.10;99.90;;;;;;5013417;28;20101;-74
2022/09/18 03:54:46;;;;;;;0.10;0.08;;;9.10;99.90;;;;;;5015249;28;20037;-74
2022/09/18 03:57:11;;;;;;;0.00;0.00;;;9.50;99.90;;;;;;5024134;28;20107;-75
2022/09/18 03:59:37;;;;;;;0.00;0.00;;;9.00;99.90;;;;;;5054520;28;20041;-75
2022/09/18 04:02:03;;;;;;;0.32;0.28;;;9.00;99.90;;;;;;5054775;28;20049;-76
2022/09/18 04:04:28;;;;;;;0.00;0.00;;;9.00;99.90;;;;;;5059822;28;20045;-75
2022/09/18 04:06:54;;;;;;;0.00;0.00;;;9.10;99.90;;;;;;5058512;28;20048;-75
2022/09/18 04:09:20;;;;;;;0.25;0.25;;;9.00;99.90;;;;;;5056780;28;20465;-74
2022/09/18 04:11:45;;;;;;;0.00;0.00;;;9.00;99.90;;;;;;5078404;28;20041;-73
2022/09/18 04:14:11;;;;;;;0.20;0.20;;;9.00;99.90;;;;;;5078947;28;20115;-75
2022/09/18 04:16:37;;;;;;;0.00;0.00;;;9.10;99.90;;;;;;5077217;28;20036;-75
2022/09/18 04:19:02;;;;;;;0.10;0.10;;;9.10;99.90;;;;;;5077829;28;20070;-75
2022/09/18 04:21:28;;;;;;;0.00;0.00;;;9.10;99.90;;;;;;5078122;28;20127;-75
2022/09/18 04:23:57;;;;;;;0.00;0.00;;;9.10;99.90;;;;;;5074779;28;20467;-75
2022/09/18 04:26:25;;;;;;;0.13;0.13;;;9.10;99.90;;;;;;5074835;28;20048;-77
2022/09/18 04:28:51;;;;;;;0.52;0.52;;;9.10;99.90;;;;;;5076165;28;20052;-76
2022/09/18 04:31:16;;;;;;;0.00;0.00;;;9.20;99.90;;;;;;5077779;28;20072;-77
2022/09/18 04:33:42;;;;;;;0.00;0.00;;;9.20;99.90;;;;;;5076835;28;20666;-76
2022/09/18 04:36:08;;;;;;;0.00;0.00;;;9.20;99.90;;;;;;5076063;28;20045;-75
2022/09/18 04:38:34;;;;;;;0.00;0.00;;;9.20;99.90;;;;;;5076064;28;20084;-77
2022/09/18 04:41:00;;;;;;;0.00;0.00;;;9.20;99.90;;;;;;5075137;28;20086;-78
2022/09/18 04:43:27;;;;;;;0.00;0.00;;;9.20;99.90;;;;;;5071670;28;20079;-74
2022/09/18 04:45:53;;;;;;;0.00;0.00;;;9.10;99.90;;;;;;5070423;28;20044;-76
2022/09/18 04:48:20;;;;;;;2.63;1.45;;;9.20;99.90;;;;;;5071455;28;20076;-78
2022/09/18 04:50:47;;;;;;;0.00;0.00;;;9.10;99.90;;;;;;5069468;28;20044;-77
2022/09/18 04:53:13;;;;;;;1.15;0.63;;;9.10;99.90;;;;;;5071844;28;20066;-75
2022/09/18 04:55:38;;;;;;;0.20;0.20;;;9.10;99.90;;;;;;5054919;28;20051;-75
2022/09/18 04:58:05;;;;;;;0.00;0.00;;;9.10;99.90;;;;;;5071719;28;20053;-78
2022/09/18 05:00:32;;;;;;;0.00;0.00;;;9.10;99.90;;;;;;5039983;28;20136;-76
2022/09/18 05:02:57;;;;;;;0.00;0.00;;;9.10;99.90;;;;;;5075599;28;20041;-77
2022/09/18 05:05:23;;;;;;;0.00;0.00;;;9.10;99.90;;;;;;5077162;28;20079;-77
2022/09/18 05:07:49;;;;;;;0.75;0.52;;;9.90;99.90;;;;;;5078661;28;20048;-77
2022/09/18 05:10:18;;;;;;;0.00;0.00;;;9.10;99.90;;;;;;5077211;28;20151;-77
2022/09/18 05:12:44;;;;;;;0.15;0.10;;;9.10;99.90;;;;;;5076983;28;20605;-75
2022/09/18 05:15:13;;;;;;;0.10;0.10;;;9.10;99.90;;;;;;5075983;28;20048;-76
2022/09/18 05:17:39;;;;;;;0.00;0.00;;;9.10;99.90;;;;;;5075810;28;20048;-77
2022/09/18 05:20:06;;;;;;;0.00;0.00;;;9.20;99.90;;;;;;5076327;28;20047;-78
2022/09/18 05:22:33;;;;;;;0.00;0.00;;;9.20;99.90;;;;;;5075623;28;20045;-78
2022/09/18 05:24:58;;;;;;;0.00;0.00;;;9.20;99.90;;;;;;5075306;28;20070;-78
2022/09/18 05:27:24;;;;;;;0.35;0.22;;;9.20;99.90;;;;;;5075221;28;20503;-76
2022/09/18 05:29:49;;;;;;;1.70;0.95;;;9.30;99.90;;;;;;5074689;28;20048;-78
2022/09/18 05:32:19;;;;;;;0.38;0.10;;;9.30;99.90;;;;;;5078468;28;20423;-77
2022/09/18 05:34:48;;;;;;;0.00;0.00;;;9.40;99.90;;;;;;5080314;28;20418;-77
2022/09/18 05:37:15;;;;;;;0.00;0.00;;;9.40;99.90;;;;;;5077511;28;20068;-75
2022/09/18 05:39:41;;;;;;;0.00;0.00;;;9.40;99.90;;;;;;5075128;28;20040;-74
2022/09/18 05:42:07;;;;;;;0.63;0.30;;;9.50;99.90;;;;;;5074803;28;20047;-74
2022/09/18 05:44:33;;;;;;;0.10;0.10;;;9.50;99.90;;;;;;5075186;28;20106;-72
2022/09/18 05:46:58;;;;;;;0.00;0.00;;;9.50;99.90;;;;;;5074874;28;20108;-74
2022/09/18 05:49:24;;;;;;;0.00;0.00;;;9.50;99.90;;;;;;5075000;28;20072;-75
2022/09/18 05:51:49;;;;;;;0.00;0.00;;;9.50;99.90;;;;;;5074999;28;20055;-72
2022/09/18 05:54:15;;;;;;;0.00;0.00;;;9.50;99.90;;;;;;5074790;28;20564;-74
2022/09/18 05:56:41;;;;;;;0.20;0.20;;;9.50;99.90;;;;;;5073695;28;20128;-74
2022/09/18 05:59:07;;;;;;;0.00;0.00;;;9.50;99.90;;;;;;5075229;28;20062;-74
2022/09/18 06:01:32;;;;;;;0.00;0.00;;;9.60;99.90;;;;;;5074761;28;20092;-75
2022/09/18 06:03:58;;;;;;;2.20;0.95;;;9.60;99.90;;;;;;5073660;28;20449;-74
2022/09/18 06:06:27;;;;;;;0.00;0.00;;;9.60;99.90;;;;;;5076042;28;20096;-73
2022/09/18 06:08:53;;;;;;;0.00;0.00;;;9.70;99.90;;;;;;5076304;28;20221;-73
2022/09/18 06:11:19;;;;;;;0.00;0.00;;;9.70;99.90;;;;;;5076387;28;20516;-75
2022/09/18 06:13:47;;;;;;;0.25;0.25;;;9.80;99.90;;;;;;5077278;28;20055;-76
2022/09/18 06:16:14;;;;;;;0.30;0.30;;;9.80;99.90;;;;;;5059710;28;20101;-75
2022/09/18 06:18:40;;;;;;;0.00;0.00;;;9.90;99.90;;;;;;5078881;28;20040;-75
2022/09/18 06:21:05;;;;;;;0.00;0.00;;;9.90;99.90;;;;;;5079834;28;20048;-74
2022/09/18 06:23:31;;;;;;;0.43;0.43;;;9.90;99.90;;;;;;5079227;28;20037;-75
2022/09/18 06:26:02;;;;;;;0.00;0.00;;;9.90;99.90;;;;;;5064002;28;20056;-75
2022/09/18 06:28:32;;;;;;;0.22;0.22;;;9.90;99.90;;;;;;5082450;28;20044;-77
2022/09/18 06:30:59;;;;;;;0.40;0.28;;;9.90;99.90;;;;;;5083013;28;20055;-75
2022/09/18 06:33:25;;;;;;;0.55;0.28;;;9.90;99.90;;;;;;5079006;28;20049;-75
2022/09/18 06:35:51;;;;;;;0.00;0.00;;;9.90;99.90;;;;;;5077058;28;20079;-74
2022/09/18 06:38:16;;;;;;;0.40;0.40;;;10.00;99.90;;;;;;5076214;28;20667;-75
2022/09/18 06:40:53;;;;;;;0.00;0.00;;;10.00;99.90;;;;;;5077105;28;20109;-76
2022/09/18 06:43:19;;;;;;;0.00;0.00;;;10.00;99.90;;;;;;5059628;28;20049;-75
2022/09/18 06:45:55;;;;;;;0.00;0.00;;;10.10;99.90;;;;;;5076582;28;20040;-74
2022/09/18 06:48:22;;;;;;;0.00;0.00;;;10.10;99.90;;;;;;5060581;28;20049;-75
2022/09/18 06:50:58;;;;;;;0.00;0.00;;;10.20;99.90;;;;;;5059105;28;20056;-76
2022/09/18 06:53:27;;;;;;;7.38;0.40;;;10.20;99.90;;;;;;5077988;28;20059;-76
2022/09/18 06:55:58;;;;;;;0.00;0.00;;;10.20;99.90;;;;;;5078130;28;20473;-73
2022/09/18 06:58:24;;;;;;;0.20;0.20;;;10.60;99.90;;;;;;5078746;28;20087;-77
2022/09/18 07:00:50;;;;;;;0.55;0.38;;;10.30;99.90;;;;;;5078278;28;20053;-74
2022/09/18 07:03:18;;;;;;;1.65;1.33;;;10.40;99.90;;;;;;5079464;28;20059;-77
2022/09/18 07:05:44;;;;;;;0.00;0.00;;;10.50;99.90;;;;;;5077457;28;20041;-76
2022/09/18 07:08:13;;;;;;;0.10;0.10;;;10.50;99.90;;;;;;5076973;28;20052;-75
2022/09/18 07:10:39;;;;;;;0.65;0.55;;;10.70;99.90;;;;;;5077650;28;20410;-75
2022/09/18 07:13:05;;;;;;;0.28;0.28;;;10.60;99.90;;;;;;5058067;28;20261;-76
2022/09/18 07:15:32;;;;;;;0.00;0.00;;;10.70;99.90;;;;;;5073625;28;20080;-76
2022/09/18 07:17:59;;;;;;;0.00;0.00;;;10.60;99.90;;;;;;5075159;28;20071;-75
2022/09/18 07:20:26;;;;;;;0.28;0.22;;;10.60;99.90;;;;;;5073840;28;20040;-74
2022/09/18 07:22:54;;;;;;;0.00;0.00;;;10.60;99.90;;;;;;5076824;28;20065;-76
2022/09/18 07:25:20;;;;;;;0.00;0.00;;;10.60;99.90;;;;;;5076070;28;20052;-74
2022/09/18 07:27:46;;;;;;;0.00;0.00;;;10.70;99.90;;;;;;5077686;28;20110;-77
2022/09/18 07:30:12;;;;;;;0.00;0.00;;;10.60;99.90;;;;;;5080003;28;20040;-75
2022/09/18 07:32:37;;;;;;;0.00;0.00;;;10.60;99.90;;;;;;5078389;28;20052;-74
2022/09/18 07:35:04;;;;;;;3.08;1.08;;;10.50;99.90;;;;;;5078930;28;20040;-74
2022/09/18 07:37:29;;;;;;;0.00;0.00;;;10.50;99.90;;;;;;5061663;28;20048;-73
2022/09/18 07:39:55;;;;;;;0.00;0.00;;;10.50;99.90;;;;;;5076374;28;20150;-74
2022/09/18 07:42:21;;;;;;;0.00;0.00;;;10.90;99.90;;;;;;5076766;28;20043;-74
2022/09/18 07:44:46;;;;;;;0.65;0.35;;;10.50;99.90;;;;;;5041347;28;20048;-76
2022/09/18 07:47:12;;;;;;;0.00;0.00;;;10.50;99.90;;;;;;5058082;28;20055;-75
2022/09/18 07:49:38;;;;;;;0.00;0.00;;;10.50;99.90;;;;;;5075092;28;20048;-76
2022/09/18 07:52:04;;;;;;;0.00;0.00;;;10.40;99.90;;;;;;5073355;28;20097;-73
2022/09/18 07:54:30;;;;;;;0.00;0.00;;;10.40;99.90;;;;;;5070933;28;20448;-74
2022/09/18 07:56:55;;;;;;;0.00;0.00;;;10.40;99.90;;;;;;5054054;28;20072;-74
2022/09/18 07:59:21;;;;;;;0.00;0.00;;;10.30;99.90;;;;;;5074029;28;20491;-74
2022/09/18 08:01:47;;;;;;;0.15;0.15;;;10.30;99.90;;;;;;5068150;28;20115;-75
2022/09/18 08:04:13;;;;;;;0.43;0.43;;;10.30;99.90;;;;;;5065670;28;20052;-75
2022/09/18 08:06:39;;;;;;;0.00;0.00;;;10.30;99.90;;;;;;5066036;28;20560;-76
2022/09/18 08:09:05;;;;;;;4.78;0.85;;;10.30;99.90;;;;;;5065201;28;20045;-75
2022/09/18 08:11:30;;;;;;;0.00;0.00;;;10.30;99.90;;;;;;5063671;28;20036;-75
2022/09/18 08:13:56;;;;;;;1.38;0.65;;;10.30;99.90;;;;;;5066087;28;20037;-75
2022/09/18 08:16:22;;;;;;;0.25;0.13;;;10.40;99.90;;;;;;5068032;28;20513;-76
2022/09/18 08:18:47;;;;;;;0.30;0.22;;;10.40;99.90;;;;;;5067770;28;20047;-75
2022/09/18 08:21:13;;;;;;;0.00;0.00;;;10.40;99.90;;;;;;5067790;28;20538;-76
2022/09/18 08:23:39;;;;;;;0.00;0.00;;;10.40;99.90;;;;;;5066236;28;20071;-76
2022/09/18 08:26:05;;;;;;;0.05;0.05;;;10.50;99.90;;;;;;5067809;28;20044;-76
2022/09/18 08:28:31;;;;;;;0.38;0.32;;;10.50;99.90;;;;;;5049396;28;20054;-73
2022/09/18 08:30:57;;;;;;;0.00;0.00;;;10.50;99.90;;;;;;5064773;28;20056;-76
2022/09/18 08:33:23;;;;;;;0.00;0.00;;;10.50;99.90;;;;;;5068014;28;20961;-78
2022/09/18 08:35:49;;;;;;;0.00;0.00;;;10.60;99.90;;;;;;5036872;28;20040;-79
2022/09/18 08:38:15;;;;;;;0.00;0.00;;;10.50;99.90;;;;;;5070395;28;20115;-76
2022/09/18 08:40:41;;;;;;;0.38;0.38;;;10.50;99.90;;;;;;5068112;28;20679;-77
2022/09/18 08:43:49;;;;;;;0.00;0.00;;;10.50;99.90;;;;;;5067902;28;20449;-77
2022/09/18 08:46:28;;;;;;;0.63;0.40;;;10.50;99.90;;;;;;5059847;28;20415;-75
2022/09/18 08:49:24;;;;;;;1.52;0.63;;;10.50;99.90;;;;;;5063997;28;20413;-76
2022/09/18 08:51:52;;;;;;;0.00;0.00;;;10.50;99.90;;;;;;5067183;28;20097;-75
2022/09/18 08:54:32;;;;;;;0.30;0.28;;;10.40;99.90;;;;;;5063050;28;20542;-78
2022/09/18 08:57:04;;;;;;;0.00;0.00;;;10.40;99.90;;;;;;5064163;28;20105;-76
2022/09/18 08:59:40;;;;;;;0.00;0.00;;;10.40;99.90;;;;;;5068754;28;20047;-77
2022/09/18 09:02:34;;;;;;;0.00;0.00;;;10.40;99.90;;;;;;5069368;28;20037;-75
2022/09/18 09:05:05;;;;;;;0.17;0.08;;;10.50;99.90;;;;;;5070629;28;20044;-76
2022/09/18 09:07:49;;;;;;;0.00;0.00;;;10.50;99.90;;;;;;5065860;28;20510;-76
2022/09/18 09:10:39;;;;;;;0.00;0.00;;;10.50;99.90;;;;;;5066379;28;20049;-77
2022/09/18 09:13:37;;;;;;;0.20;0.15;;;10.50;99.90;;;;;;5062676;28;20407;-77
2022/09/18 09:16:24;;;;;;;0.10;0.10;;;10.50;99.90;;;;;;5042816;28;20068;-78
2022/09/18 09:18:59;;;;;;;0.00;0.00;;;10.60;99.90;;;;;;5043693;28;20064;-78
2022/09/18 09:21:48;;;;;;;2.40;0.65;;;10.60;99.90;;;;;;5043354;28;20045;-79
2022/09/18 09:24:19;;;;;;;0.00;0.00;;;10.50;99.90;;;;;;5042853;28;20526;-78
2022/09/18 09:26:47;;;;;;;0.25;0.15;;;10.60;99.90;;;;;;5044440;28;20289;-77
2022/09/18 09:29:27;;;;;;;0.00;0.00;;;10.40;99.90;;;;;;5042316;28;20483;-77
2022/09/18 09:31:57;;;;;;;0.85;0.85;;;10.40;99.90;;;;;;5050164;28;20052;-78
2022/09/18 09:34:42;;;;;;;0.00;0.00;;;10.30;99.90;;;;;;5055027;28;20049;-76
2022/09/18 09:37:15;;;;;;;0.40;0.40;;;10.30;99.90;;;;;;5056807;28;20107;-78
2022/09/18 09:39:49;;;;;;;0.22;0.20;;;10.30;99.90;;;;;;5062226;28;20041;-76
2022/09/18 09:42:26;;;;;;;0.10;0.10;;;10.30;99.90;;;;;;5064277;28;20056;-76
2022/09/18 09:44:58;;;;;;;0.00;0.00;;;10.30;99.90;;;;;;5060548;28;20045;-75
2022/09/18 09:47:46;;;;;;;0.28;0.25;;;10.30;99.90;;;;;;5063835;28;20032;-76
2022/09/18 09:50:21;;;;;;;0.00;0.00;;;10.30;99.90;;;;;;5061178;28;20048;-76
2022/09/18 09:52:47;;;;;;;0.00;0.00;;;10.30;99.90;;;;;;5058271;28;20125;-76
2022/09/18 09:55:13;;;;;;;0.03;0.03;;;10.30;99.90;;;;;;5059363;28;20040;-75
2022/09/18 09:58:00;;;;;;;0.00;0.00;;;10.30;99.90;;;;;;5058604;28;20135;-75
2022/09/18 10:00:31;;;;;;;0.52;0.30;;;10.30;99.90;;;;;;5060691;28;20051;-74
2022/09/18 10:03:21;;;;;;;0.00;0.00;;;10.50;99.90;;;;;;5061032;28;20051;-76
2022/09/18 10:06:14;;;;;;;0.00;0.00;;;10.60;99.90;;;;;;5057542;28;20063;-75
2022/09/18 10:08:55;;;;;;;0.00;0.00;;;10.60;99.90;;;;;;5058180;28;20053;-75
2022/09/18 10:11:22;;;;;;;0.00;0.00;;;10.60;99.90;;;;;;5052702;28;20045;-76
2022/09/18 10:14:11;;;;;;;0.00;0.00;;;10.60;99.90;;;;;;5070736;28;20047;-75
2022/09/18 10:16:45;;;;;;;1.00;0.70;;;10.60;99.90;;;;;;5070003;28;20048;-76
2022/09/18 10:19:16;;;;;;;0.25;0.20;;;10.60;99.90;;;;;;5070555;28;20048;-76
2022/09/18 10:21:42;;;;;;;0.55;0.55;;;10.70;99.90;;;;;;5072285;28;20056;-75
2022/09/18 10:24:45;;;;;;;0.15;0.13;;;10.80;99.90;;;;;;5074300;28;20040;-75
2022/09/18 10:27:13;;;;;;;0.22;0.22;;;10.80;99.90;;;;;;5072263;28;20135;-74
2022/09/18 10:29:39;;;;;;;0.00;0.00;;;10.90;99.90;;;;;;5070135;28;20044;-75
2022/09/18 10:32:06;;;;;;;1.10;0.95;;;10.90;99.90;;;;;;5072985;28;20051;-75
2022/09/18 10:34:49;;;;;;;0.00;0.00;;;11.00;99.90;;;;;;5073527;28;20044;-76
2022/09/18 10:37:27;;;;;;;0.00;0.00;;;11.10;99.90;;;;;;5058928;28;20052;-76
2022/09/18 10:40:01;;;;;;;0.00;0.00;;;11.10;99.90;;;;;;5076941;28;20044;-75
2022/09/18 10:42:28;;;;;;;0.00;0.00;;;11.20;99.90;;;;;;5073183;28;20625;-74
2022/09/18 10:44:57;;;;;;;0.15;0.15;;;11.10;99.90;;;;;;5074212;28;20044;-76
2022/09/18 10:47:31;;;;;;;0.47;0.40;;;11.10;99.90;;;;;;5073763;28;20272;-76
2022/09/18 10:50:05;;;;;;;0.00;0.00;;;11.30;99.90;;;;;;5077129;28;20059;-75
2022/09/18 10:52:43;;;;;;;0.00;0.00;;;11.30;99.90;;;;;;5078540;28;20056;-76
2022/09/18 10:55:11;;;;;;;0.00;0.00;;;11.30;99.90;;;;;;5063305;28;20076;-76
2022/09/18 10:57:55;;;;;;;0.75;0.20;;;11.30;99.90;;;;;;5080782;28;20060;-75
2022/09/18 11:00:28;;;;;;;0.20;0.20;;;11.30;99.90;;;;;;5081467;28;20063;-73
2022/09/18 11:03:15;;;;;;;3.10;0.15;;;11.50;99.90;;;;;;5080133;28;20076;-75
2022/09/18 11:06:02;;;;;;;0.00;0.00;;;11.60;99.90;;;;;;5076874;28;20048;-75
2022/09/18 11:08:32;;;;;;;0.82;0.60;;;11.80;99.90;;;;;;5076396;28;20112;-76
2022/09/18 11:11:07;;;;;;;0.00;0.00;;;12.00;99.90;;;;;;5075600;28;20048;-76
2022/09/18 11:13:41;;;;;;;0.90;0.32;;;12.00;99.90;;;;;;5076008;28;20036;-75
2022/09/18 11:16:07;;;;;;;0.08;0.08;;;12.10;99.90;;;;;;5055662;28;20127;-75
2022/09/18 11:18:33;;;;;;;0.00;0.00;;;12.20;99.90;;;;;;5073454;28;20117;-76
2022/09/18 11:21:03;;;;;;;0.08;0.08;;;12.20;99.90;;;;;;5073256;28;20079;-75
2022/09/18 11:23:33;;;;;;;4.10;1.35;;;12.30;99.90;;;;;;5072627;28;20102;-76
2022/09/18 11:26:18;;;;;;;1.10;0.40;;;12.40;99.90;;;;;;5073342;28;20044;-75
2022/09/18 11:29:03;;;;;;;4.80;1.02;;;12.40;99.90;;;;;;5049370;28;20044;-77
2022/09/18 11:31:57;;;;;;;0.05;0.05;;;12.40;99.90;;;;;;5072866;28;20051;-77
2022/09/18 11:34:38;;;;;;;11.98;0.47;;;12.50;99.90;;;;;;5074581;28;20041;-75
2022/09/18 11:37:07;;;;;;;0.00;0.00;;;12.60;99.90;;;;;;5073506;28;20398;-77
2022/09/18 11:39:44;;;;;;;1.20;0.65;;;12.60;99.90;;;;;;5074005;28;20059;-76
2022/09/18 11:42:13;;;;;;;0.20;0.13;;;12.70;99.90;;;;;;5072583;28;20059;-76
2022/09/18 11:44:39;;;;;;;21.15;0.50;;;12.70;99.90;;;;;;5072289;28;20048;-77
2022/09/18 11:47:26;;;;;;;0.10;0.10;;;12.90;99.90;;;;;;5052841;28;20068;-77
2022/09/18 11:50:01;;;;;;;0.10;0.10;;;13.00;99.90;;;;;;5071964;28;20605;-76
2022/09/18 11:52:36;;;;;;;0.00;0.00;;;13.10;99.90;;;;;;5072010;28;20098;-76
2022/09/18 11:55:12;;;;;;;0.25;0.25;;;13.20;99.90;;;;;;5072887;28;20059;-76
2022/09/18 11:57:54;;;;;;;0.25;0.20;;;13.40;99.90;;;;;;5071226;28;20063;-75
2022/09/18 12:00:22;;;;;;;0.30;0.30;;;13.40;99.90;;;;;;5072541;28;20772;-75
2022/09/18 12:03:20;;;;;;;0.28;0.17;;;13.40;99.90;;;;;;5071394;28;20106;-75
2022/09/18 12:06:05;;;;;;;0.00;0.00;;;13.30;99.90;;;;;;5073674;28;20037;-76
2022/09/18 12:08:33;;;;;;;0.05;0.05;;;13.30;99.90;;;;;;5071003;28;20048;-76
2022/09/18 12:11:23;;;;;;;0.17;0.10;;;13.30;99.90;;;;;;5064393;28;20102;-75
2022/09/18 12:14:12;;;;;;;0.00;0.00;;;13.30;99.90;;;;;;5072948;28;20146;-76
2022/09/18 12:16:59;;;;;;;0.15;0.15;;;13.30;99.90;;;;;;5070321;28;20139;-76
2022/09/18 12:19:49;;;;;;;0.00;0.00;;;13.20;99.90;;;;;;5051301;28;20052;-76
2022/09/18 12:22:27;;;;;;;0.10;0.00;;;13.10;99.90;;;;;;5070505;28;20052;-76
2022/09/18 12:24:52;;;;;;;0.93;0.32;;;13.10;99.90;;;;;;5070580;28;20051;-76
2022/09/18 12:27:57;;;;;;;0.20;0.20;;;13.00;99.90;;;;;;5051357;28;20048;-75
2022/09/18 12:30:32;;;;;;;0.13;0.13;;;13.10;99.90;;;;;;5051243;28;20094;-75
2022/09/18 12:33:13;;;;;;;0.07;0.03;;;13.20;99.90;;;;;;5064287;28;20049;-77
2022/09/18 12:36:05;;;;;;;0.00;0.00;;;13.40;99.90;;;;;;5063326;28;20291;-75
2022/09/18 12:38:43;;;;;;;0.00;0.00;;;13.60;99.90;;;;;;5066084;28;20048;-77
2022/09/18 12:41:31;;;;;;;0.28;0.28;;;13.60;99.90;;;;;;5069394;28;20476;-77
2022/09/18 12:44:11;;;;;;;0.65;0.43;;;13.70;99.90;;;;;;5073273;28;20052;-75
2022/09/18 12:47:04;;;;;;;0.20;0.05;;;13.80;99.90;;;;;;5070622;28;20430;-76
2022/09/18 12:49:51;;;;;;;1.00;0.63;;;13.90;99.90;;;;;;5072715;28;20422;-77
2022/09/18 12:52:29;;;;;;;0.00;0.00;;;14.10;99.90;;;;;;5071871;28;20060;-77
2022/09/18 12:55:13;;;;;;;0.00;0.00;;;14.20;99.90;;;;;;5072225;28;20052;-77
2022/09/18 12:57:50;;;;;;;0.00;0.00;;;14.20;99.90;;;;;;5056303;28;20561;-76
2022/09/18 13:00:21;;;;;;;0.00;0.00;;;13.90;99.90;;;;;;5072344;28;20064;-75
2022/09/18 13:03:14;;;;;;;0.08;0.08;;;13.70;99.90;;;;;;5072245;28;20137;-76
2022/09/18 13:05:51;;;;;;;0.85;0.52;;;13.60;99.90;;;;;;5073013;28;20450;-76
2022/09/18 13:08:44;;;;;;;0.00;0.00;;;13.50;99.90;;;;;;5074898;28;20055;-77
2022/09/18 13:11:44;;;;;;;0.00;0.00;;;13.40;99.90;;;;;;5057808;28;20123;-76
2022/09/18 13:14:17;;;;;;;0.00;0.00;;;13.40;99.90;;;;;;5065971;28;20052;-77
2022/09/18 13:16:48;;;;;;;0.15;0.15;;;13.50;99.90;;;;;;5076889;28;20491;-76
2022/09/18 13:19:27;;;;;;;0.00;0.00;;;13.50;99.90;;;;;;5076601;28;20055;-77